Overview Statistics Trail Chart Weather Telemetry Raw packets
 

This is the latest recevied weather packets stored in our database for station/object IU3OVK-13. If no packets are shown the sender has not sent any weather packets the latest 10 day(s).

<< 3 4 5 6 7 8 9 >>
Time Temp. Humidity Pressure Rain* Wind** Luminosity Snow
1788537964 30° C 99% 1009.9 hPa - - - -
1788537378 30.56° C 99% 1009.9 hPa - - - -
1788537344 30.56° C 99% 1009.9 hPa - - - -
1788536746 30.56° C 99% 1010.2 hPa - - - -
1788536104 31.11° C 99% 1009.9 hPa - - - -
1788534863 30.56° C 99% 1010 hPa - - - -
1788534243 30.56° C 99% 1010.1 hPa - - - -
1788533654 30.56° C 99% 1010.3 hPa - - - -
1788533623 30.56° C 99% 1010.3 hPa - - - -
1788533003 30.56° C 99% 1009.9 hPa - - - -
1788532383 30.56° C 99% 1010.3 hPa - - - -
1788531762 30.56° C 99% 1010.3 hPa - - - -
1788531142 30.56° C 99% 1010.7 hPa - - - -
1788530523 30.56° C 99% 1010.9 hPa - - - -
1788529282 31.67° C 99% 1010.8 hPa - - - -
1788528661 32.78° C 99% 1009.9 hPa - - - -
1788528041 32.78° C 99% 1009.8 hPa - - - -
1788527421 31.11° C 99% 1011 hPa - - - -
1788526181 33.33° C 99% 1011.1 hPa - - - -
1788525562 33.89° C 93% 1010.4 hPa - - - -
1788524940 33.33° C 92% 1011.2 hPa - - - -
1788524320 33.33° C 92% 1011.2 hPa - - - -
1788524263 33.89° C 91% 1010.6 hPa - - - -
1788523643 32.22° C 93% 1012.4 hPa - - - -
1788523023 33.89° C 84% 1013 hPa - - - -

* Rain since midnight (hover to see other rain measurements)
** Current wind speed in m/s (hover to see current wind gust speed)